sensor_id;sensor_type;location;lat;lon;timestamp;pressure;altitude;pressure_sealevel;temperature;humidity
55679;BME280;41573;51.446;-2.018;2023-06-04T00:01:03;101545.94;;;14.15;100.00
55679;BME280;41573;51.446;-2.018;2023-06-04T00:03:29;101541.72;;;14.11;100.00
55679;BME280;41573;51.446;-2.018;2023-06-04T00:05:55;101549.28;;;14.04;100.00
55679;BME280;41573;51.446;-2.018;2023-06-04T00:08:20;101546.00;;;13.99;100.00
55679;BME280;41573;51.446;-2.018;2023-06-04T00:10:46;101550.84;;;13.92;100.00
55679;BME280;41573;51.446;-2.018;2023-06-04T00:13:11;101549.09;;;13.91;100.00
55679;BME280;41573;51.446;-2.018;2023-06-04T00:15:36;101541.44;;;13.85;100.00
55679;BME280;41573;51.446;-2.018;2023-06-04T00:18:02;101546.91;;;13.84;100.00
55679;BME280;41573;51.446;-2.018;2023-06-04T00:20:27;101542.38;;;13.84;100.00
55679;BME280;41573;51.446;-2.018;2023-06-04T00:22:53;101540.84;;;13.80;100.00
55679;BME280;41573;51.446;-2.018;2023-06-04T00:25:18;101542.66;;;13.79;100.00
55679;BME280;41573;51.446;-2.018;2023-06-04T00:27:43;101543.78;;;13.75;100.00
55679;BME280;41573;51.446;-2.018;2023-06-04T00:30:09;101536.81;;;13.73;100.00
55679;BME280;41573;51.446;-2.018;2023-06-04T00:32:35;101534.69;;;13.64;100.00
55679;BME280;41573;51.446;-2.018;2023-06-04T00:35:00;101542.88;;;13.60;100.00
55679;BME280;41573;51.446;-2.018;2023-06-04T00:37:27;101537.97;;;13.53;100.00
55679;BME280;41573;51.446;-2.018;2023-06-04T00:39:53;101545.41;;;13.48;100.00
55679;BME280;41573;51.446;-2.018;2023-06-04T00:42:18;101546.63;;;13.42;100.00
55679;BME280;41573;51.446;-2.018;2023-06-04T00:44:44;101552.31;;;13.36;100.00
55679;BME280;41573;51.446;-2.018;2023-06-04T00:47:14;101543.03;;;13.25;100.00
55679;BME280;41573;51.446;-2.018;2023-06-04T00:49:41;101547.78;;;13.20;100.00
55679;BME280;41573;51.446;-2.018;2023-06-04T00:52:08;101542.16;;;13.09;100.00
55679;BME280;41573;51.446;-2.018;2023-06-04T00:54:35;101550.34;;;13.06;100.00
55679;BME280;41573;51.446;-2.018;2023-06-04T00:57:00;101550.09;;;12.94;100.00
55679;BME280;41573;51.446;-2.018;2023-06-04T00:59:26;101554.66;;;12.92;100.00
55679;BME280;41573;51.446;-2.018;2023-06-04T01:02:00;101556.53;;;12.90;100.00
55679;BME280;41573;51.446;-2.018;2023-06-04T01:07:04;101554.38;;;12.81;100.00
55679;BME280;41573;51.446;-2.018;2023-06-04T01:09:32;101552.75;;;12.79;100.00
55679;BME280;41573;51.446;-2.018;2023-06-04T01:11:58;101551.09;;;12.76;100.00
55679;BME280;41573;51.446;-2.018;2023-06-04T01:14:24;101548.94;;;12.67;100.00
55679;BME280;41573;51.446;-2.018;2023-06-04T01:22:35;101548.94;;;12.67;100.00
55679;BME280;41573;51.446;-2.018;2023-06-04T01:25:05;101542.03;;;12.63;100.00
55679;BME280;41573;51.446;-2.018;2023-06-04T01:27:31;101542.19;;;12.59;100.00
55679;BME280;41573;51.446;-2.018;2023-06-04T01:29:58;101545.78;;;12.58;100.00
55679;BME280;41573;51.446;-2.018;2023-06-04T01:32:26;101541.56;;;12.54;100.00
55679;BME280;41573;51.446;-2.018;2023-06-04T01:34:51;101541.66;;;12.53;100.00
55679;BME280;41573;51.446;-2.018;2023-06-04T01:37:17;101535.91;;;12.43;100.00
55679;BME280;41573;51.446;-2.018;2023-06-04T01:39:43;101532.47;;;12.41;100.00
55679;BME280;41573;51.446;-2.018;2023-06-04T01:42:09;101531.94;;;12.34;100.00
55679;BME280;41573;51.446;-2.018;2023-06-04T01:44:34;101526.94;;;12.28;100.00
55679;BME280;41573;51.446;-2.018;2023-06-04T01:46:59;101530.91;;;12.19;100.00
55679;BME280;41573;51.446;-2.018;2023-06-04T01:49:25;101535.66;;;12.14;100.00
55679;BME280;41573;51.446;-2.018;2023-06-04T01:51:51;101538.47;;;12.11;100.00
55679;BME280;41573;51.446;-2.018;2023-06-04T01:54:16;101533.34;;;12.06;100.00
55679;BME280;41573;51.446;-2.018;2023-06-04T01:56:42;101531.25;;;11.96;100.00
55679;BME280;41573;51.446;-2.018;2023-06-04T01:59:07;101536.31;;;11.83;100.00
55679;BME280;41573;51.446;-2.018;2023-06-04T02:01:33;101543.09;;;11.71;100.00
55679;BME280;41573;51.446;-2.018;2023-06-04T02:03:59;101533.69;;;11.64;100.00
55679;BME280;41573;51.446;-2.018;2023-06-04T02:06:24;101535.66;;;11.60;100.00
55679;BME280;41573;51.446;-2.018;2023-06-04T02:08:56;101528.75;;;11.56;100.00
55679;BME280;41573;51.446;-2.018;2023-06-04T02:11:21;101529.44;;;11.60;100.00
55679;BME280;41573;51.446;-2.018;2023-06-04T02:13:47;101522.25;;;11.62;100.00
55679;BME280;41573;51.446;-2.018;2023-06-04T02:16:13;101515.47;;;11.54;100.00
55679;BME280;41573;51.446;-2.018;2023-06-04T02:18:38;101517.22;;;11.55;100.00
55679;BME280;41573;51.446;-2.018;2023-06-04T02:21:03;101517.13;;;11.57;100.00
55679;BME280;41573;51.446;-2.018;2023-06-04T02:23:29;101529.75;;;11.53;100.00
55679;BME280;41573;51.446;-2.018;2023-06-04T02:25:54;101514.06;;;11.47;100.00
55679;BME280;41573;51.446;-2.018;2023-06-04T02:28:20;101521.09;;;11.48;100.00
55679;BME280;41573;51.446;-2.018;2023-06-04T02:30:46;101523.16;;;11.43;100.00
55679;BME280;41573;51.446;-2.018;2023-06-04T02:33:12;101528.28;;;11.29;100.00
55679;BME280;41573;51.446;-2.018;2023-06-04T02:35:38;101531.81;;;11.29;100.00
55679;BME280;41573;51.446;-2.018;2023-06-04T02:38:03;101534.78;;;11.23;100.00
55679;BME280;41573;51.446;-2.018;2023-06-04T02:40:30;101533.13;;;11.20;100.00
55679;BME280;41573;51.446;-2.018;2023-06-04T02:42:56;101529.53;;;11.21;100.00
55679;BME280;41573;51.446;-2.018;2023-06-04T02:45:22;101527.06;;;11.17;100.00
55679;BME280;41573;51.446;-2.018;2023-06-04T02:47:47;101533.53;;;11.11;100.00
55679;BME280;41573;51.446;-2.018;2023-06-04T02:50:14;101531.09;;;11.07;100.00
55679;BME280;41573;51.446;-2.018;2023-06-04T02:52:40;101533.69;;;11.08;100.00
55679;BME280;41573;51.446;-2.018;2023-06-04T02:55:07;101526.94;;;11.01;100.00
55679;BME280;41573;51.446;-2.018;2023-06-04T02:57:34;101527.84;;;11.00;100.00
55679;BME280;41573;51.446;-2.018;2023-06-04T03:00:00;101523.56;;;10.97;100.00
55679;BME280;41573;51.446;-2.018;2023-06-04T03:02:26;101525.19;;;11.00;100.00
55679;BME280;41573;51.446;-2.018;2023-06-04T03:04:53;101523.41;;;11.00;100.00
55679;BME280;41573;51.446;-2.018;2023-06-04T03:07:20;101516.41;;;10.98;100.00
55679;BME280;41573;51.446;-2.018;2023-06-04T03:09:48;101515.75;;;10.93;100.00
55679;BME280;41573;51.446;-2.018;2023-06-04T03:12:14;101510.34;;;10.94;100.00
55679;BME280;41573;51.446;-2.018;2023-06-04T03:14:39;101511.38;;;10.92;100.00
55679;BME280;41573;51.446;-2.018;2023-06-04T03:17:05;101521.22;;;10.90;100.00
55679;BME280;41573;51.446;-2.018;2023-06-04T03:19:40;101519.41;;;10.90;100.00
55679;BME280;41573;51.446;-2.018;2023-06-04T03:22:07;101510.72;;;10.86;100.00
55679;BME280;41573;51.446;-2.018;2023-06-04T03:24:34;101510.78;;;10.85;100.00
55679;BME280;41573;51.446;-2.018;2023-06-04T03:27:00;101509.06;;;10.84;100.00
55679;BME280;41573;51.446;-2.018;2023-06-04T03:29:25;101509.13;;;10.82;100.00
55679;BME280;41573;51.446;-2.018;2023-06-04T03:31:51;101503.81;;;10.82;100.00
55679;BME280;41573;51.446;-2.018;2023-06-04T03:34:16;101502.88;;;10.83;100.00
55679;BME280;41573;51.446;-2.018;2023-06-04T03:36:41;101509.13;;;10.82;100.00
55679;BME280;41573;51.446;-2.018;2023-06-04T03:39:07;101502.88;;;10.83;100.00
55679;BME280;41573;51.446;-2.018;2023-06-04T03:41:32;101515.13;;;10.88;100.00
55679;BME280;41573;51.446;-2.018;2023-06-04T03:43:58;101511.72;;;10.84;100.00
55679;BME280;41573;51.446;-2.018;2023-06-04T03:46:23;101502.22;;;10.78;100.00
55679;BME280;41573;51.446;-2.018;2023-06-04T03:48:51;101507.63;;;10.77;100.00
55679;BME280;41573;51.446;-2.018;2023-06-04T03:51:17;101511.94;;;10.79;100.00
55679;BME280;41573;51.446;-2.018;2023-06-04T03:53:42;101511.22;;;10.76;100.00
55679;BME280;41573;51.446;-2.018;2023-06-04T03:56:08;101515.97;;;10.69;100.00
55679;BME280;41573;51.446;-2.018;2023-06-04T03:58:35;101508.09;;;10.66;100.00
55679;BME280;41573;51.446;-2.018;2023-06-04T04:01:01;101515.31;;;10.64;100.00
55679;BME280;41573;51.446;-2.018;2023-06-04T04:03:27;101516.22;;;10.63;100.00
55679;BME280;41573;51.446;-2.018;2023-06-04T04:05:57;101512.06;;;10.57;100.00
55679;BME280;41573;51.446;-2.018;2023-06-04T04:08:23;101521.84;;;10.57;100.00
55679;BME280;41573;51.446;-2.018;2023-06-04T04:10:49;101516.81;;;10.50;100.00
55679;BME280;41573;51.446;-2.018;2023-06-04T04:13:17;101519.47;;;10.50;100.00
55679;BME280;41573;51.446;-2.018;2023-06-04T04:15:42;101515.94;;;10.50;100.00
55679;BME280;41573;51.446;-2.018;2023-06-04T04:18:08;101520.41;;;10.49;100.00
55679;BME280;41573;51.446;-2.018;2023-06-04T04:20:33;101516.88;;;10.49;100.00
55679;BME280;41573;51.446;-2.018;2023-06-04T04:22:59;101513.41;;;10.47;100.00
55679;BME280;41573;51.446;-2.018;2023-06-04T04:25:27;101516.91;;;10.47;100.00
55679;BME280;41573;51.446;-2.018;2023-06-04T04:27:52;101515.16;;;10.48;100.00
55679;BME280;41573;51.446;-2.018;2023-06-04T04:30:21;101517.00;;;10.46;100.00
55679;BME280;41573;51.446;-2.018;2023-06-04T04:32:47;101513.34;;;10.48;100.00
55679;BME280;41573;51.446;-2.018;2023-06-04T04:35:16;101516.16;;;10.45;100.00
55679;BME280;41573;51.446;-2.018;2023-06-04T04:37:44;101512.56;;;10.46;100.00
55679;BME280;41573;51.446;-2.018;2023-06-04T04:40:10;101510.03;;;10.43;100.00
55679;BME280;41573;51.446;-2.018;2023-06-04T04:42:37;101516.22;;;10.44;100.00
55679;BME280;41573;51.446;-2.018;2023-06-04T04:45:03;101514.00;;;10.54;100.00
55679;BME280;41573;51.446;-2.018;2023-06-04T04:47:30;101506.66;;;10.59;100.00
55679;BME280;41573;51.446;-2.018;2023-06-04T04:49:56;101511.88;;;10.62;100.00
55679;BME280;41573;51.446;-2.018;2023-06-04T04:52:22;101509.84;;;10.67;100.00
55679;BME280;41573;51.446;-2.018;2023-06-04T04:54:47;101514.25;;;10.68;100.00
55679;BME280;41573;51.446;-2.018;2023-06-04T04:57:14;101513.16;;;10.72;100.00
55679;BME280;41573;51.446;-2.018;2023-06-04T04:59:39;101517.69;;;10.70;100.00
55679;BME280;41573;51.446;-2.018;2023-06-04T05:02:05;101522.00;;;10.73;100.00
55679;BME280;41573;51.446;-2.018;2023-06-04T05:04:32;101528.94;;;10.77;100.00
55679;BME280;41573;51.446;-2.018;2023-06-04T05:06:57;101520.72;;;10.81;100.00
55679;BME280;41573;51.446;-2.018;2023-06-04T05:09:23;101518.88;;;10.83;100.00
55679;BME280;41573;51.446;-2.018;2023-06-04T05:11:50;101518.78;;;10.85;100.00
55679;BME280;41573;51.446;-2.018;2023-06-04T05:14:16;101525.72;;;10.89;100.00
55679;BME280;41573;51.446;-2.018;2023-06-04T05:16:42;101520.16;;;10.94;100.00
55679;BME280;41573;51.446;-2.018;2023-06-04T05:19:11;101520.06;;;10.95;100.00
55679;BME280;41573;51.446;-2.018;2023-06-04T05:21:36;101519.94;;;10.98;100.00
55679;BME280;41573;51.446;-2.018;2023-06-04T05:24:02;101519.59;;;11.06;100.00
55679;BME280;41573;51.446;-2.018;2023-06-04T05:26:28;101521.28;;;11.07;100.00
55679;BME280;41573;51.446;-2.018;2023-06-04T05:28:55;101523.84;;;11.10;100.00
55679;BME280;41573;51.446;-2.018;2023-06-04T05:31:21;101530.75;;;11.14;100.00
55679;BME280;41573;51.446;-2.018;2023-06-04T05:33:55;101529.38;;;11.25;100.00
55679;BME280;41573;51.446;-2.018;2023-06-04T05:36:20;101522.22;;;11.25;100.00
55679;BME280;41573;51.446;-2.018;2023-06-04T05:38:47;101520.38;;;11.27;100.00
55679;BME280;41573;51.446;-2.018;2023-06-04T05:41:13;101529.00;;;11.32;100.00
55679;BME280;41573;51.446;-2.018;2023-06-04T05:43:38;101526.25;;;11.34;100.00
55679;BME280;41573;51.446;-2.018;2023-06-04T05:46:04;101519.97;;;11.35;100.00
55679;BME280;41573;51.446;-2.018;2023-06-04T05:48:31;101517.97;;;11.40;100.00
55679;BME280;41573;51.446;-2.018;2023-06-04T05:50:56;101520.56;;;11.42;100.00
55679;BME280;41573;51.446;-2.018;2023-06-04T05:53:22;101519.47;;;11.46;100.00
55679;BME280;41573;51.446;-2.018;2023-06-04T05:55:47;101524.66;;;11.49;100.00
55679;BME280;41573;51.446;-2.018;2023-06-04T05:58:13;101527.88;;;11.55;100.00
55679;BME280;41573;51.446;-2.018;2023-06-04T06:00:38;101521.34;;;11.61;100.00
55679;BME280;41573;51.446;-2.018;2023-06-04T06:03:04;101523.81;;;11.66;100.00
55679;BME280;41573;51.446;-2.018;2023-06-04T06:05:31;101522.31;;;11.78;100.00
55679;BME280;41573;51.446;-2.018;2023-06-04T06:07:56;101521.16;;;11.83;100.00
55679;BME280;41573;51.446;-2.018;2023-06-04T06:10:22;101525.91;;;11.96;100.00
55679;BME280;41573;51.446;-2.018;2023-06-04T06:12:48;101526.41;;;12.04;100.00
55679;BME280;41573;51.446;-2.018;2023-06-04T06:15:13;101537.69;;;12.09;100.00
55679;BME280;41573;51.446;-2.018;2023-06-04T06:17:39;101523.94;;;12.17;100.00
55679;BME280;41573;51.446;-2.018;2023-06-04T06:20:05;101522.44;;;12.29;100.00
55679;BME280;41573;51.446;-2.018;2023-06-04T06:22:33;101523.19;;;12.31;100.00
55679;BME280;41573;51.446;-2.018;2023-06-04T06:25:00;101525.56;;;12.37;100.00
55679;BME280;41573;51.446;-2.018;2023-06-04T06:27:26;101526.16;;;12.42;100.00
55679;BME280;41573;51.446;-2.018;2023-06-04T06:29:51;101530.25;;;12.49;100.00
55679;BME280;41573;51.446;-2.018;2023-06-04T06:32:17;101527.84;;;12.61;100.00
55679;BME280;41573;51.446;-2.018;2023-06-04T06:34:42;101522.47;;;12.62;100.00
55679;BME280;41573;51.446;-2.018;2023-06-04T06:37:08;101522.03;;;12.70;100.00
55679;BME280;41573;51.446;-2.018;2023-06-04T06:39:33;101527.13;;;12.74;100.00
55679;BME280;41573;51.446;-2.018;2023-06-04T06:41:58;101527.66;;;12.81;100.00
55679;BME280;41573;51.446;-2.018;2023-06-04T06:44:24;101520.31;;;12.85;100.00
55679;BME280;41573;51.446;-2.018;2023-06-04T06:46:49;101520.25;;;12.86;100.00
55679;BME280;41573;51.446;-2.018;2023-06-04T06:49:15;101517.78;;;12.99;100.00
55679;BME280;41573;51.446;-2.018;2023-06-04T06:51:41;101512.75;;;13.09;100.00
55679;BME280;41573;51.446;-2.018;2023-06-04T06:54:08;101516.75;;;13.18;100.00
55679;BME280;41573;51.446;-2.018;2023-06-04T06:56:34;101510.84;;;13.27;100.00
55679;BME280;41573;51.446;-2.018;2023-06-04T06:58:59;101513.13;;;13.35;100.00
55679;BME280;41573;51.446;-2.018;2023-06-04T07:01:25;101518.13;;;13.41;100.00
55679;BME280;41573;51.446;-2.018;2023-06-04T07:03:50;101516.81;;;13.48;100.00
55679;BME280;41573;51.446;-2.018;2023-06-04T07:06:16;101521.06;;;13.52;100.00
55679;BME280;41573;51.446;-2.018;2023-06-04T07:08:41;101525.28;;;13.56;100.00
55679;BME280;41573;51.446;-2.018;2023-06-04T07:11:07;101533.88;;;13.61;100.00
55679;BME280;41573;51.446;-2.018;2023-06-04T07:13:36;101529.75;;;13.72;100.00
55679;BME280;41573;51.446;-2.018;2023-06-04T07:16:02;101532.66;;;13.83;100.00
55679;BME280;41573;51.446;-2.018;2023-06-04T07:18:27;101532.97;;;13.93;100.00
55679;BME280;41573;51.446;-2.018;2023-06-04T07:20:53;101535.19;;;14.01;100.00
55679;BME280;41573;51.446;-2.018;2023-06-04T07:23:18;101542.84;;;14.07;100.00
55679;BME280;41573;51.446;-2.018;2023-06-04T07:25:44;101541.63;;;14.12;100.00
55679;BME280;41573;51.446;-2.018;2023-06-04T07:28:09;101547.38;;;14.21;100.00
55679;BME280;41573;51.446;-2.018;2023-06-04T07:30:34;101550.06;;;14.21;100.00
55679;BME280;41573;51.446;-2.018;2023-06-04T07:33:01;101546.06;;;14.28;100.00
55679;BME280;41573;51.446;-2.018;2023-06-04T07:35:26;101548.00;;;14.40;100.00
55679;BME280;41573;51.446;-2.018;2023-06-04T07:37:51;101547.50;;;14.48;100.00
55679;BME280;41573;51.446;-2.018;2023-06-04T07:40:17;101546.75;;;14.60;100.00
55679;BME280;41573;51.446;-2.018;2023-06-04T07:42:44;101551.41;;;14.73;100.00
55679;BME280;41573;51.446;-2.018;2023-06-04T07:45:10;101549.09;;;14.81;100.00
55679;BME280;41573;51.446;-2.018;2023-06-04T07:47:36;101542.09;;;14.93;100.00
55679;BME280;41573;51.446;-2.018;2023-06-04T07:50:02;101538.28;;;14.97;100.00
55679;BME280;41573;51.446;-2.018;2023-06-04T07:52:28;101538.91;;;15.00;100.00
55679;BME280;41573;51.446;-2.018;2023-06-04T07:54:53;101539.28;;;15.09;100.00
55679;BME280;41573;51.446;-2.018;2023-06-04T07:57:18;101544.97;;;15.04;100.00
55679;BME280;41573;51.446;-2.018;2023-06-04T07:59:44;101550.81;;;15.11;100.00
55679;BME280;41573;51.446;-2.018;2023-06-04T08:02:09;101549.53;;;15.16;100.00
55679;BME280;41573;51.446;-2.018;2023-06-04T08:04:35;101557.38;;;15.34;100.00
55679;BME280;41573;51.446;-2.018;2023-06-04T08:07:00;101550.13;;;15.49;100.00
55679;BME280;41573;51.446;-2.018;2023-06-04T08:09:25;101554.69;;;15.61;100.00
55679;BME280;41573;51.446;-2.018;2023-06-04T08:11:51;101556.63;;;15.59;100.00
55679;BME280;41573;51.446;-2.018;2023-06-04T08:14:16;101552.56;;;15.66;100.00
55679;BME280;41573;51.446;-2.018;2023-06-04T08:16:42;101550.88;;;15.78;100.00
55679;BME280;41573;51.446;-2.018;2023-06-04T08:19:07;101545.69;;;15.90;100.00
55679;BME280;41573;51.446;-2.018;2023-06-04T08:21:33;101542.78;;;15.93;100.00
55679;BME280;41573;51.446;-2.018;2023-06-04T08:23:59;101546.44;;;16.05;100.00
55679;BME280;41573;51.446;-2.018;2023-06-04T08:26:25;101543.69;;;16.06;100.00
55679;BME280;41573;51.446;-2.018;2023-06-04T08:28:52;101552.28;;;16.11;100.00
55679;BME280;41573;51.446;-2.018;2023-06-04T08:31:18;101557.03;;;16.20;100.00
55679;BME280;41573;51.446;-2.018;2023-06-04T08:33:46;101558.00;;;16.32;100.00
55679;BME280;41573;51.446;-2.018;2023-06-04T08:36:12;101539.53;;;16.41;100.00
55679;BME280;41573;51.446;-2.018;2023-06-04T08:38:38;101545.00;;;16.52;100.00
55679;BME280;41573;51.446;-2.018;2023-06-04T08:41:14;101545.41;;;16.59;100.00
55679;BME280;41573;51.446;-2.018;2023-06-04T08:43:42;101552.97;;;16.66;100.00
55679;BME280;41573;51.446;-2.018;2023-06-04T08:46:09;101545.63;;;16.68;100.00
55679;BME280;41573;51.446;-2.018;2023-06-04T08:48:35;101551.66;;;16.72;100.00
55679;BME280;41573;51.446;-2.018;2023-06-04T08:51:02;101557.91;;;16.72;100.00
55679;BME280;41573;51.446;-2.018;2023-06-04T08:53:30;101550.16;;;16.81;100.00
55679;BME280;41573;51.446;-2.018;2023-06-04T08:55:56;101553.69;;;16.81;100.00
55679;BME280;41573;51.446;-2.018;2023-06-04T08:58:22;101564.81;;;16.89;100.00
55679;BME280;41573;51.446;-2.018;2023-06-04T09:00:48;101559.31;;;16.91;100.00
55679;BME280;41573;51.446;-2.018;2023-06-04T09:03:15;101562.31;;;16.99;100.00
55679;BME280;41573;51.446;-2.018;2023-06-04T09:05:41;101555.28;;;17.10;100.00
55679;BME280;41573;51.446;-2.018;2023-06-04T09:08:13;101555.50;;;17.19;100.00
55679;BME280;41573;51.446;-2.018;2023-06-04T09:10:40;101550.97;;;17.20;100.00
55679;BME280;41573;51.446;-2.018;2023-06-04T09:13:06;101556.13;;;17.23;100.00
55679;BME280;41573;51.446;-2.018;2023-06-04T09:15:33;101559.88;;;17.33;100.00
55679;BME280;41573;51.446;-2.018;2023-06-04T09:17:58;101563.81;;;17.40;100.00
55679;BME280;41573;51.446;-2.018;2023-06-04T09:20:24;101551.75;;;17.46;100.00
55679;BME280;41573;51.446;-2.018;2023-06-04T09:22:50;101545.50;;;17.46;100.00
55679;BME280;41573;51.446;-2.018;2023-06-04T09:25:26;101559.03;;;17.57;100.00
55679;BME280;41573;51.446;-2.018;2023-06-04T09:27:53;101549.84;;;17.60;100.00
55679;BME280;41573;51.446;-2.018;2023-06-04T09:30:21;101550.00;;;17.69;100.00
55679;BME280;41573;51.446;-2.018;2023-06-04T09:32:47;101552.59;;;17.71;100.00
55679;BME280;41573;51.446;-2.018;2023-06-04T09:35:17;101559.47;;;17.75;100.00
55679;BME280;41573;51.446;-2.018;2023-06-04T09:37:54;101558.63;;;17.74;100.00
55679;BME280;41573;51.446;-2.018;2023-06-04T09:40:20;101554.84;;;17.77;100.00
55679;BME280;41573;51.446;-2.018;2023-06-04T09:42:47;101551.16;;;17.91;100.00
55679;BME280;41573;51.446;-2.018;2023-06-04T09:45:33;101545.09;;;17.87;100.00
55679;BME280;41573;51.446;-2.018;2023-06-04T09:48:01;101543.56;;;17.96;100.00
55679;BME280;41573;51.446;-2.018;2023-06-04T09:50:29;101545.56;;;18.05;100.00
55679;BME280;41573;51.446;-2.018;2023-06-04T09:52:55;101547.28;;;18.18;100.00
55679;BME280;41573;51.446;-2.018;2023-06-04T09:55:22;101547.91;;;18.21;100.00
55679;BME280;41573;51.446;-2.018;2023-06-04T09:57:49;101555.06;;;18.34;100.00
55679;BME280;41573;51.446;-2.018;2023-06-04T10:00:22;101560.69;;;18.42;100.00
55679;BME280;41573;51.446;-2.018;2023-06-04T10:02:49;101569.69;;;18.54;100.00
55679;BME280;41573;51.446;-2.018;2023-06-04T10:05:16;101547.84;;;18.57;100.00
55679;BME280;41573;51.446;-2.018;2023-06-04T10:07:45;101546.13;;;18.56;100.00
55679;BME280;41573;51.446;-2.018;2023-06-04T10:10:15;101547.88;;;18.68;100.00
55679;BME280;41573;51.446;-2.018;2023-06-04T10:12:42;101545.56;;;18.75;100.00
55679;BME280;41573;51.446;-2.018;2023-06-04T10:15:13;101534.63;;;18.76;100.00
55679;BME280;41573;51.446;-2.018;2023-06-04T10:17:39;101544.78;;;18.84;100.00
55679;BME280;41573;51.446;-2.018;2023-06-04T10:20:07;101551.06;;;18.85;100.00
55679;BME280;41573;51.446;-2.018;2023-06-04T10:22:34;101559.91;;;18.98;100.00
55679;BME280;41573;51.446;-2.018;2023-06-04T10:25:00;101562.00;;;18.94;100.00
55679;BME280;41573;51.446;-2.018;2023-06-04T10:27:26;101562.50;;;19.00;100.00
55679;BME280;41573;51.446;-2.018;2023-06-04T10:29:51;101556.00;;;19.02;100.00
55679;BME280;41573;51.446;-2.018;2023-06-04T10:32:18;101548.75;;;19.03;100.00
55679;BME280;41573;51.446;-2.018;2023-06-04T10:34:44;101561.63;;;19.10;100.00
55679;BME280;41573;51.446;-2.018;2023-06-04T10:37:23;101561.63;;;19.10;100.00
55679;BME280;41573;51.446;-2.018;2023-06-04T10:39:52;101548.00;;;19.12;100.00
55679;BME280;41573;51.446;-2.018;2023-06-04T10:42:18;101555.84;;;19.15;100.00
55679;BME280;41573;51.446;-2.018;2023-06-04T10:44:48;101554.50;;;19.21;100.00
55679;BME280;41573;51.446;-2.018;2023-06-04T10:47:41;101557.56;;;19.27;100.00
55679;BME280;41573;51.446;-2.018;2023-06-04T10:50:11;101560.34;;;19.37;100.00
55679;BME280;41573;51.446;-2.018;2023-06-04T10:52:37;101557.63;;;19.37;100.00
55679;BME280;41573;51.446;-2.018;2023-06-04T10:55:06;101550.97;;;19.53;100.00
55679;BME280;41573;51.446;-2.018;2023-06-04T10:57:32;101550.84;;;19.54;100.00
55679;BME280;41573;51.446;-2.018;2023-06-04T10:59:59;101565.50;;;19.52;100.00
55679;BME280;41573;51.446;-2.018;2023-06-04T11:02:25;101561.56;;;19.56;100.00
55679;BME280;41573;51.446;-2.018;2023-06-04T11:05:01;101557.13;;;19.55;100.00
55679;BME280;41573;51.446;-2.018;2023-06-04T11:07:27;101552.19;;;19.60;100.00
55679;BME280;41573;51.446;-2.018;2023-06-04T11:09:53;101547.41;;;19.63;100.00
55679;BME280;41573;51.446;-2.018;2023-06-04T11:12:19;101549.69;;;19.68;100.00
55679;BME280;41573;51.446;-2.018;2023-06-04T11:14:56;101556.94;;;19.79;100.00
55679;BME280;41573;51.446;-2.018;2023-06-04T11:17:22;101547.34;;;19.86;100.00
55679;BME280;41573;51.446;-2.018;2023-06-04T11:19:48;101551.22;;;19.93;100.00
55679;BME280;41573;51.446;-2.018;2023-06-04T11:22:14;101550.56;;;20.01;100.00
55679;BME280;41573;51.446;-2.018;2023-06-04T11:24:39;101549.06;;;20.08;100.00
55679;BME280;41573;51.446;-2.018;2023-06-04T11:27:05;101561.59;;;20.09;100.00
55679;BME280;41573;51.446;-2.018;2023-06-04T11:29:32;101551.97;;;20.17;100.00
55679;BME280;41573;51.446;-2.018;2023-06-04T11:31:57;101554.22;;;20.11;100.00
55679;BME280;41573;51.446;-2.018;2023-06-04T11:34:30;101555.75;;;20.04;100.00
55679;BME280;41573;51.446;-2.018;2023-06-04T11:37:07;101558.81;;;20.00;100.00
55679;BME280;41573;51.446;-2.018;2023-06-04T11:39:35;101536.34;;;19.99;100.00
55679;BME280;41573;51.446;-2.018;2023-06-04T11:42:04;101544.38;;;20.10;100.00
55679;BME280;41573;51.446;-2.018;2023-06-04T11:44:30;101550.06;;;20.07;100.00
55679;BME280;41573;51.446;-2.018;2023-06-04T11:46:56;101542.81;;;20.08;100.00
55679;BME280;41573;51.446;-2.018;2023-06-04T11:49:21;101549.25;;;20.17;100.00
55679;BME280;41573;51.446;-2.018;2023-06-04T11:51:48;101534.75;;;20.18;100.00
55679;BME280;41573;51.446;-2.018;2023-06-04T11:54:18;101545.78;;;20.26;100.00
55679;BME280;41573;51.446;-2.018;2023-06-04T11:56:44;101542.88;;;20.39;100.00
55679;BME280;41573;51.446;-2.018;2023-06-04T11:59:14;101534.34;;;20.43;100.00
55679;BME280;41573;51.446;-2.018;2023-06-04T12:01:42;101537.03;;;20.43;100.00
55679;BME280;41573;51.446;-2.018;2023-06-04T12:04:17;101522.41;;;20.46;100.00
55679;BME280;41573;51.446;-2.018;2023-06-04T12:06:56;101528.66;;;20.46;100.00
55679;BME280;41573;51.446;-2.018;2023-06-04T12:09:28;101513.88;;;20.50;100.00
55679;BME280;41573;51.446;-2.018;2023-06-04T12:12:03;101512.03;;;20.51;100.00
55679;BME280;41573;51.446;-2.018;2023-06-04T12:14:30;101517.09;;;20.65;100.00
55679;BME280;41573;51.446;-2.018;2023-06-04T12:17:08;101514.00;;;20.70;100.00
55679;BME280;41573;51.446;-2.018;2023-06-04T12:19:49;101512.00;;;20.72;100.00
55679;BME280;41573;51.446;-2.018;2023-06-04T12:22:14;101511.75;;;20.75;100.00
55679;BME280;41573;51.446;-2.018;2023-06-04T12:25:04;101516.28;;;20.75;100.00
55679;BME280;41573;51.446;-2.018;2023-06-04T12:27:30;101511.75;;;20.75;100.00
55679;BME280;41573;51.446;-2.018;2023-06-04T12:30:03;101515.16;;;20.77;100.00
55679;BME280;41573;51.446;-2.018;2023-06-04T12:32:30;101516.88;;;20.78;100.00
55679;BME280;41573;51.446;-2.018;2023-06-04T12:34:56;101526.69;;;20.79;100.00
55679;BME280;41573;51.446;-2.018;2023-06-04T12:37:22;101518.28;;;20.73;100.00